createdAt,value
2023-05-21T00:01:36.079Z,4.50
2023-05-21T00:04:08.460Z,4.57
2023-05-21T00:06:40.466Z,4.07
2023-05-21T00:09:13.067Z,5.00
2023-05-21T00:11:45.048Z,3.83
2023-05-21T00:14:17.400Z,4.23
2023-05-21T00:16:49.426Z,4.77
2023-05-21T00:19:21.612Z,3.80
2023-05-21T00:21:54.829Z,4.40
2023-05-21T00:24:26.722Z,4.77
2023-05-21T00:26:58.733Z,4.40
2023-05-21T00:29:30.982Z,4.03
2023-05-21T00:32:03.174Z,3.90
2023-05-21T00:34:35.196Z,5.03
2023-05-21T00:37:10.030Z,3.90
2023-05-21T00:39:42.453Z,3.90
2023-05-21T00:42:18.241Z,4.87
2023-05-21T00:44:50.168Z,4.33
2023-05-21T00:47:22.487Z,5.03
2023-05-21T00:49:55.231Z,4.17
2023-05-21T00:52:27.541Z,4.37
2023-05-21T00:54:59.547Z,4.50
2023-05-21T00:57:33.393Z,4.27
2023-05-21T01:00:08.864Z,4.60
2023-05-21T01:02:41.240Z,5.03
2023-05-21T01:05:15.458Z,6.00
2023-05-21T01:07:48.434Z,6.47
2023-05-21T01:10:20.578Z,7.20
2023-05-21T01:12:57.482Z,9.77
2023-05-21T01:15:29.910Z,11.60
2023-05-21T01:18:02.246Z,12.50
2023-05-21T01:20:34.755Z,13.67
2023-05-21T01:23:06.978Z,13.93
2023-05-21T01:25:39.060Z,15.50
2023-05-21T01:28:11.243Z,14.57
2023-05-21T01:30:44.321Z,15.80
2023-05-21T01:33:47.619Z,16.33
2023-05-21T01:36:28.471Z,15.90
2023-05-21T01:39:12.249Z,14.30
2023-05-21T01:41:46.681Z,12.37
2023-05-21T01:44:19.974Z,10.60
2023-05-21T01:46:54.641Z,10.03
2023-05-21T01:49:26.978Z,8.17
2023-05-21T01:51:59.054Z,7.83
2023-05-21T01:54:31.103Z,7.67
2023-05-21T01:57:03.885Z,6.43
2023-05-21T01:59:36.516Z,6.40
2023-05-21T02:02:08.701Z,7.90
2023-05-21T02:04:44.258Z,6.33
2023-05-21T02:07:16.230Z,6.13
2023-05-21T02:09:48.225Z,5.23
2023-05-21T02:12:20.280Z,5.40
2023-05-21T02:14:52.196Z,5.53
2023-05-21T02:17:24.600Z,8.00
2023-05-21T02:19:57.084Z,5.40
2023-05-21T02:22:29.068Z,5.40
2023-05-21T02:25:01.164Z,4.77
2023-05-21T02:27:35.188Z,4.40
2023-05-21T02:30:10.974Z,5.43
2023-05-21T02:32:43.791Z,4.73
2023-05-21T02:35:15.952Z,4.93
2023-05-21T02:37:49.001Z,5.60
2023-05-21T02:40:20.981Z,4.70
2023-05-21T02:42:52.989Z,4.50
2023-05-21T02:45:25.043Z,5.77
2023-05-21T02:47:57.063Z,5.03
2023-05-21T02:50:29.136Z,4.30
2023-05-21T02:53:01.212Z,5.13
2023-05-21T02:55:33.330Z,5.47
2023-05-21T02:58:05.445Z,4.73
2023-05-21T03:00:37.469Z,5.30
2023-05-21T03:03:09.877Z,5.00
2023-05-21T03:05:41.947Z,5.20
2023-05-21T03:08:13.868Z,5.50
2023-05-21T03:10:45.849Z,7.93
2023-05-21T03:13:17.886Z,6.77
2023-05-21T03:15:49.934Z,6.77
2023-05-21T03:18:22.996Z,6.83
2023-05-21T03:20:55.022Z,7.50
2023-05-21T03:23:27.009Z,7.67
2023-05-21T03:25:59.003Z,7.67
2023-05-21T03:28:31.981Z,8.47
2023-05-21T03:31:04.150Z,8.40
2023-05-21T03:33:36.122Z,6.70
2023-05-21T03:36:08.632Z,6.70
2023-05-21T03:38:40.689Z,6.97
2023-05-21T03:41:13.290Z,6.70
2023-05-21T03:43:45.687Z,5.57
2023-05-21T03:46:17.760Z,5.85
2023-05-21T03:48:50.119Z,5.90
2023-05-21T03:51:22.863Z,7.07
2023-05-21T03:53:54.881Z,10.43
2023-05-21T03:56:26.940Z,8.47
2023-05-21T03:58:58.893Z,5.83
2023-05-21T04:01:32.929Z,5.43
2023-05-21T04:04:05.794Z,5.83
2023-05-21T04:06:38.325Z,8.10
2023-05-21T04:09:10.374Z,5.90
2023-05-21T04:11:42.342Z,5.90
2023-05-21T04:14:14.524Z,5.57
2023-05-21T04:16:49.176Z,6.83
2023-05-21T04:19:21.343Z,6.40
2023-05-21T04:21:53.372Z,7.17
2023-05-21T04:24:25.595Z,6.20
2023-05-21T04:27:01.263Z,5.87
2023-05-21T04:29:33.268Z,5.90
2023-05-21T04:32:06.215Z,6.33
2023-05-21T04:34:39.703Z,5.63
2023-05-21T04:37:12.092Z,5.77
2023-05-21T04:39:44.814Z,6.17
2023-05-21T04:42:16.937Z,8.07
2023-05-21T04:44:48.981Z,6.17
2023-05-21T04:47:21.195Z,6.50
2023-05-21T04:49:53.603Z,11.43
2023-05-21T04:52:26.904Z,7.63
2023-05-21T04:54:58.861Z,10.43
2023-05-21T04:57:30.854Z,9.50
2023-05-21T05:00:04.148Z,9.67
2023-05-21T05:02:36.092Z,8.13
2023-05-21T05:05:08.775Z,7.93
2023-05-21T05:07:40.881Z,8.00
2023-05-21T05:10:12.827Z,7.37
2023-05-21T05:12:44.785Z,8.00
2023-05-21T05:15:17.004Z,7.57
2023-05-21T05:17:50.591Z,9.40
2023-05-21T05:20:22.637Z,8.37
2023-05-21T05:22:54.561Z,9.43
2023-05-21T05:25:27.328Z,9.60
2023-05-21T05:27:59.264Z,9.70
2023-05-21T05:30:31.286Z,9.03
2023-05-21T05:33:03.276Z,8.37
2023-05-21T05:35:35.479Z,9.03
2023-05-21T05:38:08.953Z,7.60
2023-05-21T05:40:41.002Z,7.27
2023-05-21T05:43:12.992Z,7.00
2023-05-21T05:45:44.962Z,7.03
2023-05-21T05:48:16.922Z,6.63
2023-05-21T05:50:49.072Z,6.50
2023-05-21T05:53:21.568Z,7.67
2023-05-21T05:55:53.817Z,6.40
2023-05-21T05:58:26.092Z,7.30
2023-05-21T06:00:58.177Z,7.00
2023-05-21T06:03:31.080Z,7.13
2023-05-21T06:06:03.310Z,7.57
2023-05-21T06:08:38.072Z,6.77
2023-05-21T06:11:11.414Z,7.10
2023-05-21T06:13:43.597Z,6.80
2023-05-21T06:16:16.014Z,6.80
2023-05-21T06:18:48.161Z,7.00
2023-05-21T06:21:20.135Z,6.37
2023-05-21T06:23:52.245Z,6.53
2023-05-21T06:26:24.236Z,8.10
2023-05-21T06:28:56.659Z,6.83
2023-05-21T06:31:28.796Z,7.17
2023-05-21T06:34:01.412Z,6.53
2023-05-21T06:36:33.608Z,7.83
2023-05-21T06:39:05.625Z,6.77
2023-05-21T06:41:37.576Z,6.77
2023-05-21T06:44:10.042Z,6.20
2023-05-21T06:46:42.818Z,6.93
2023-05-21T06:49:15.083Z,6.40
2023-05-21T06:51:47.294Z,7.63
2023-05-21T06:54:19.255Z,9.27
2023-05-21T06:56:51.228Z,6.10
2023-05-21T06:59:23.169Z,6.60
2023-05-21T07:01:55.230Z,7.30
2023-05-21T07:04:27.366Z,7.27
2023-05-21T07:06:59.350Z,7.33
2023-05-21T07:09:31.591Z,7.30
2023-05-21T07:12:03.762Z,6.43
2023-05-21T07:14:35.800Z,6.93
2023-05-21T07:17:07.871Z,7.80
2023-05-21T07:19:39.854Z,7.20
2023-05-21T07:22:12.698Z,6.80
2023-05-21T07:24:44.773Z,7.33
2023-05-21T07:27:25.376Z,8.00
2023-05-21T07:29:57.952Z,6.80
2023-05-21T07:32:30.023Z,7.60
2023-05-21T07:35:02.146Z,7.50
2023-05-21T07:37:34.350Z,7.47
2023-05-21T07:40:08.313Z,7.57
2023-05-21T07:42:40.960Z,7.83
2023-05-21T07:45:12.914Z,7.50
2023-05-21T07:47:46.807Z,7.70
2023-05-21T07:50:19.126Z,7.23
2023-05-21T07:52:51.276Z,7.67
2023-05-21T07:55:23.502Z,8.00
2023-05-21T07:57:56.379Z,8.30
2023-05-21T08:00:28.392Z,8.17
2023-05-21T08:03:01.083Z,8.03
2023-05-21T08:05:33.112Z,7.53
2023-05-21T08:08:05.744Z,8.23
2023-05-21T08:10:37.946Z,7.70
2023-05-21T08:13:15.002Z,7.40
2023-05-21T08:15:49.066Z,7.80
2023-05-21T08:18:24.057Z,8.60
2023-05-21T08:20:56.777Z,9.07
2023-05-21T08:23:28.732Z,8.27
2023-05-21T08:26:00.742Z,8.33
2023-05-21T08:28:32.903Z,8.27
2023-05-21T08:31:05.195Z,8.73
2023-05-21T08:33:38.455Z,8.43
2023-05-21T08:36:10.567Z,8.73
2023-05-21T08:38:42.499Z,13.30
2023-05-21T08:41:17.613Z,7.97
2023-05-21T08:43:57.695Z,10.83
2023-05-21T08:46:36.263Z,8.40
2023-05-21T08:49:14.075Z,8.63
2023-05-21T08:51:48.227Z,8.33
2023-05-21T08:54:20.361Z,9.47
2023-05-21T08:56:53.603Z,8.70
2023-05-21T08:59:27.196Z,8.27
2023-05-21T09:01:59.994Z,8.97
2023-05-21T09:04:33.944Z,8.80
2023-05-21T09:07:08.076Z,9.17
2023-05-21T09:09:55.149Z,8.30
2023-05-21T09:12:28.558Z,8.53
2023-05-21T09:15:02.213Z,8.87
2023-05-21T09:17:34.318Z,9.70
2023-05-21T09:20:15.284Z,9.17
2023-05-21T09:22:50.522Z,9.30
2023-05-21T09:25:25.429Z,8.83
2023-05-21T09:27:58.278Z,8.43
2023-05-21T09:30:32.495Z,8.20
2023-05-21T09:33:06.144Z,9.80
2023-05-21T09:35:44.924Z,9.23
2023-05-21T09:38:17.402Z,9.57
2023-05-21T09:40:49.508Z,9.13
2023-05-21T09:43:22.055Z,8.47
2023-05-21T09:45:57.775Z,9.03
2023-05-21T09:48:42.112Z,9.67
2023-05-21T09:51:16.067Z,9.13
2023-05-21T09:54:01.184Z,9.90
2023-05-21T09:56:34.641Z,9.23
2023-05-21T09:59:07.502Z,9.23
2023-05-21T10:01:39.905Z,10.03
2023-05-21T10:04:12.978Z,9.83
2023-05-21T10:06:47.914Z,10.13
2023-05-21T10:09:21.439Z,9.47
2023-05-21T10:11:55.011Z,9.70
2023-05-21T10:14:32.039Z,9.60
2023-05-21T10:17:06.796Z,10.63
2023-05-21T10:19:41.263Z,10.47
2023-05-21T10:22:14.194Z,10.60
2023-05-21T10:24:46.745Z,10.20
2023-05-21T10:27:19.824Z,10.33
2023-05-21T10:29:56.537Z,10.53
2023-05-21T10:32:28.932Z,10.73
2023-05-21T10:35:04.731Z,10.70
2023-05-21T10:37:37.608Z,10.30
2023-05-21T10:40:10.303Z,11.17
2023-05-21T10:43:35.941Z,10.13
2023-05-21T10:46:26.220Z,9.80
2023-05-21T10:49:38.766Z,11.23
2023-05-21T10:52:44.564Z,10.17
2023-05-21T10:55:53.382Z,12.03
2023-05-21T10:59:00.922Z,10.23
2023-05-21T11:01:37.637Z,10.57
2023-05-21T11:04:11.014Z,11.67
2023-05-21T11:06:51.135Z,10.87
2023-05-21T11:09:23.479Z,11.83
2023-05-21T11:12:00.140Z,12.60
2023-05-21T11:14:56.264Z,11.90
2023-05-21T11:17:40.189Z,12.23
2023-05-21T11:20:16.862Z,12.27
2023-05-21T11:22:49.884Z,12.43
2023-05-21T11:25:21.990Z,12.57
2023-05-21T11:27:54.229Z,12.73
2023-05-21T11:30:26.168Z,13.37
2023-05-21T11:33:18.512Z,14.37
2023-05-21T11:35:50.384Z,13.90
2023-05-21T11:38:22.332Z,13.97
2023-05-21T11:40:55.590Z,13.27
2023-05-21T11:43:27.717Z,13.97
2023-05-21T11:46:00.044Z,14.13
2023-05-21T11:48:33.014Z,14.17
2023-05-21T11:51:06.138Z,13.20
2023-05-21T11:53:44.339Z,12.87
2023-05-21T11:56:18.426Z,13.97
2023-05-21T11:58:50.798Z,13.80
2023-05-21T12:01:26.568Z,13.70
2023-05-21T12:03:58.582Z,13.93
2023-05-21T12:06:31.586Z,14.73
2023-05-21T12:09:04.711Z,12.60
2023-05-21T12:11:41.967Z,13.80
2023-05-21T12:14:14.776Z,14.37
2023-05-21T12:16:46.857Z,14.27
2023-05-21T12:19:19.332Z,13.27
2023-05-21T12:21:51.488Z,14.23
2023-05-21T12:24:23.625Z,13.73
2023-05-21T12:26:59.350Z,13.90
2023-05-21T12:29:32.651Z,13.60
2023-05-21T12:32:08.928Z,12.77
2023-05-21T12:34:51.461Z,14.47
2023-05-21T12:37:32.538Z,13.60
2023-05-21T12:40:07.887Z,13.17
2023-05-21T12:42:40.248Z,13.20
2023-05-21T12:45:12.932Z,14.10
2023-05-21T12:47:50.448Z,13.90
2023-05-21T12:50:22.803Z,17.10
2023-05-21T12:52:58.706Z,14.60
2023-05-21T12:55:31.778Z,13.70
2023-05-21T12:58:08.320Z,12.83
2023-05-21T13:00:43.720Z,14.17
2023-05-21T13:03:16.548Z,13.57
2023-05-21T13:05:48.582Z,12.70
2023-05-21T13:08:20.735Z,13.80
2023-05-21T13:10:52.767Z,14.03
2023-05-21T13:13:24.762Z,13.73
2023-05-21T13:15:57.226Z,13.80
2023-05-21T13:18:29.239Z,12.93
2023-05-21T13:21:01.230Z,13.30
2023-05-21T13:23:33.192Z,13.23
2023-05-21T13:26:05.241Z,13.17
2023-05-21T13:28:37.194Z,13.40
2023-05-21T13:31:09.890Z,12.80
2023-05-21T13:33:41.969Z,13.60
2023-05-21T13:36:14.124Z,12.83
2023-05-21T13:38:46.096Z,13.17
2023-05-21T13:41:18.114Z,13.13
2023-05-21T13:43:50.121Z,12.50
2023-05-21T13:46:22.157Z,12.57
2023-05-21T13:48:54.254Z,13.07
2023-05-21T13:54:03.836Z,13.60
2023-05-21T13:56:35.880Z,12.30
2023-05-21T13:59:07.854Z,13.33
2023-05-21T14:01:39.842Z,12.70
2023-05-21T14:04:12.458Z,13.17
2023-05-21T14:06:44.984Z,12.83
2023-05-21T14:09:17.010Z,13.63
2023-05-21T14:11:49.227Z,12.20
2023-05-21T14:14:21.655Z,12.40
2023-05-21T14:16:53.783Z,13.13
2023-05-21T14:19:26.226Z,12.90
2023-05-21T14:21:59.931Z,12.07
2023-05-21T14:24:31.933Z,13.00
2023-05-21T14:27:04.210Z,11.90
2023-05-21T14:29:36.238Z,11.67
2023-05-21T14:32:08.729Z,12.10
2023-05-21T14:34:41.325Z,12.00
2023-05-21T14:37:13.309Z,11.90
2023-05-21T14:39:45.428Z,12.47
2023-05-21T14:42:17.604Z,12.77
2023-05-21T14:44:49.655Z,12.83
2023-05-21T14:47:21.774Z,12.67
2023-05-21T14:49:53.857Z,12.20
2023-05-21T14:52:25.852Z,11.80
2023-05-21T14:54:57.849Z,12.57
2023-05-21T14:57:29.814Z,12.40
2023-05-21T15:00:01.915Z,13.17
2023-05-21T15:02:34.053Z,12.70
2023-05-21T15:05:06.832Z,12.00
2023-05-21T15:07:39.050Z,18.90
2023-05-21T15:10:11.450Z,13.23
2023-05-21T15:12:43.513Z,13.20
2023-05-21T15:15:17.107Z,12.50
2023-05-21T15:17:50.736Z,12.60
2023-05-21T15:20:23.320Z,13.47
2023-05-21T15:23:05.055Z,16.70
2023-05-21T15:25:47.449Z,17.20
2023-05-21T15:28:20.255Z,15.10
2023-05-21T15:30:52.347Z,13.87
2023-05-21T15:33:24.693Z,13.43
2023-05-21T15:35:56.767Z,12.27
2023-05-21T15:38:28.796Z,11.40
2023-05-21T15:41:01.400Z,12.30
2023-05-21T15:43:33.431Z,12.47
2023-05-21T15:46:05.511Z,13.03
2023-05-21T15:48:37.976Z,12.50
2023-05-21T15:51:09.953Z,12.77
2023-05-21T15:53:41.950Z,12.60
2023-05-21T15:56:14.034Z,12.90
2023-05-21T15:58:46.065Z,13.30
2023-05-21T16:01:18.595Z,12.73
2023-05-21T16:03:50.618Z,12.93
2023-05-21T16:06:23.043Z,13.43
2023-05-21T16:08:55.159Z,12.90
2023-05-21T16:11:27.678Z,11.77
2023-05-21T16:13:59.635Z,14.40
2023-05-21T16:16:31.642Z,12.90
2023-05-21T16:19:03.754Z,12.67
2023-05-21T16:21:35.806Z,12.13
2023-05-21T16:24:07.854Z,12.93
2023-05-21T16:26:39.871Z,12.80
2023-05-21T16:29:11.990Z,11.67
2023-05-21T16:31:44.168Z,12.63
2023-05-21T16:34:16.388Z,12.43
2023-05-21T16:36:48.343Z,11.50
2023-05-21T16:39:20.437Z,12.37
2023-05-21T16:41:54.010Z,12.23
2023-05-21T16:44:28.897Z,13.00
2023-05-21T16:47:02.029Z,12.17
2023-05-21T16:49:34.093Z,12.27
2023-05-21T16:52:06.554Z,12.07
2023-05-21T16:54:38.641Z,13.13
2023-05-21T16:57:10.616Z,13.07
2023-05-21T16:59:44.625Z,12.47
2023-05-21T17:02:16.887Z,12.53
2023-05-21T17:04:48.968Z,12.93
2023-05-21T17:07:20.984Z,11.97
2023-05-21T17:09:53.016Z,12.70
2023-05-21T17:12:25.054Z,16.60
2023-05-21T17:14:57.259Z,12.20
2023-05-21T17:17:29.295Z,12.83
2023-05-21T17:20:02.461Z,12.13
2023-05-21T17:22:34.472Z,12.37
2023-05-21T17:25:07.500Z,12.80
2023-05-21T17:27:39.645Z,13.10
2023-05-21T17:30:12.334Z,14.47
2023-05-21T17:32:44.413Z,12.87
2023-05-21T17:35:16.506Z,12.93
2023-05-21T17:37:48.516Z,12.67
2023-05-21T17:40:23.116Z,13.37
2023-05-21T17:42:56.053Z,11.97
2023-05-21T17:45:28.074Z,12.30
2023-05-21T17:48:00.692Z,13.33
2023-05-21T17:50:34.261Z,12.47
2023-05-21T17:53:06.520Z,12.37
2023-05-21T17:55:38.823Z,12.63
2023-05-21T17:58:10.988Z,12.33
2023-05-21T18:00:43.030Z,12.20
2023-05-21T18:03:15.133Z,12.23
2023-05-21T18:05:47.184Z,13.10
2023-05-21T18:08:19.266Z,13.00
2023-05-21T18:10:51.259Z,12.43
2023-05-21T18:13:23.347Z,12.73
2023-05-21T18:15:58.293Z,12.30
2023-05-21T18:18:30.296Z,12.10
2023-05-21T18:21:02.286Z,13.20
2023-05-21T18:23:34.325Z,12.83
2023-05-21T18:26:06.418Z,13.60
2023-05-21T18:28:38.372Z,12.50
2023-05-21T18:31:10.398Z,12.20
2023-05-21T18:33:42.357Z,13.57
2023-05-21T18:36:14.334Z,13.47
2023-05-21T18:38:46.505Z,13.20
2023-05-21T18:41:19.861Z,13.07
2023-05-21T18:43:51.853Z,13.43
2023-05-21T18:46:23.879Z,13.30
2023-05-21T18:48:56.432Z,11.97
2023-05-21T18:51:28.576Z,13.57
2023-05-21T18:54:00.594Z,12.90
2023-05-21T18:56:32.599Z,13.23
2023-05-21T18:59:04.698Z,14.63
2023-05-21T19:01:36.804Z,11.30
2023-05-21T19:04:09.384Z,10.60
2023-05-21T19:06:41.429Z,9.10
2023-05-21T19:09:13.443Z,10.43
2023-05-21T19:11:45.532Z,8.07
2023-05-21T19:14:17.625Z,9.73
2023-05-21T19:16:49.572Z,8.17
2023-05-21T19:19:21.774Z,7.77
2023-05-21T19:21:54.038Z,8.00
2023-05-21T19:24:26.211Z,7.83
2023-05-21T19:27:00.134Z,7.70
2023-05-21T19:29:32.263Z,9.07
2023-05-21T19:32:04.545Z,8.93
2023-05-21T19:34:36.699Z,8.40
2023-05-21T19:37:08.904Z,8.83
2023-05-21T19:39:43.528Z,8.03
2023-05-21T19:42:17.294Z,9.53
2023-05-21T19:44:49.274Z,10.60
2023-05-21T19:47:21.305Z,7.73
2023-05-21T19:49:53.317Z,8.23
2023-05-21T19:52:25.433Z,8.45
2023-05-21T19:55:04.424Z,7.70
2023-05-21T19:57:37.299Z,9.57
2023-05-21T20:00:10.414Z,8.50
2023-05-21T20:02:42.510Z,7.83
2023-05-21T20:05:14.616Z,7.93
2023-05-21T20:07:46.751Z,8.27
2023-05-21T20:10:18.837Z,8.43
2023-05-21T20:12:50.844Z,9.87
2023-05-21T20:15:22.826Z,7.80
2023-05-21T20:17:55.961Z,9.27
2023-05-21T20:20:28.018Z,10.93
2023-05-21T20:23:03.253Z,9.40
2023-05-21T20:25:35.241Z,10.50
2023-05-21T20:28:08.607Z,10.10
2023-05-21T20:30:58.942Z,8.17
2023-05-21T20:33:33.242Z,8.73
2023-05-21T20:36:05.573Z,8.10
2023-05-21T20:38:38.237Z,8.03
2023-05-21T20:41:10.437Z,9.03
2023-05-21T20:43:45.287Z,10.80
2023-05-21T20:46:17.557Z,9.90
2023-05-21T20:48:49.755Z,8.20
2023-05-21T20:51:21.812Z,7.70
2023-05-21T20:53:53.939Z,9.90
2023-05-21T20:56:40.659Z,10.73
2023-05-21T20:59:13.840Z,7.17
2023-05-21T21:01:46.021Z,7.70
2023-05-21T21:04:19.110Z,10.53
2023-05-21T21:06:51.980Z,9.43
2023-05-21T21:09:23.940Z,9.80
2023-05-21T21:11:56.320Z,8.30
2023-05-21T21:14:29.868Z,10.00
2023-05-21T21:17:02.888Z,8.17
2023-05-21T21:19:35.484Z,10.70
2023-05-21T21:22:07.566Z,8.87
2023-05-21T21:24:39.652Z,10.57
2023-05-21T21:27:11.598Z,9.60
2023-05-21T21:29:44.228Z,10.53
2023-05-21T21:32:16.371Z,10.97
2023-05-21T21:34:48.829Z,7.80
2023-05-21T21:37:20.883Z,9.23
2023-05-21T21:39:53.354Z,8.40
2023-05-21T21:42:25.518Z,8.80
2023-05-21T21:44:57.557Z,10.20
2023-05-21T21:47:29.702Z,9.13
2023-05-21T21:50:01.749Z,10.23
2023-05-21T21:52:33.728Z,9.93
2023-05-21T21:55:10.484Z,10.67
2023-05-21T21:57:42.419Z,10.07
2023-05-21T22:00:17.556Z,10.13
2023-05-21T22:02:49.614Z,11.33
2023-05-21T22:05:21.670Z,11.87
2023-05-21T22:07:53.707Z,10.37
2023-05-21T22:10:25.911Z,11.43
2023-05-21T22:12:57.887Z,11.60
2023-05-21T22:15:32.156Z,11.73
2023-05-21T22:18:04.614Z,13.03
2023-05-21T22:20:38.299Z,12.63
2023-05-21T22:23:10.479Z,10.50
2023-05-21T22:25:42.498Z,10.57
2023-05-21T22:28:14.502Z,11.07
2023-05-21T22:30:46.506Z,11.87
2023-05-21T22:33:18.699Z,13.33
2023-05-21T22:35:51.044Z,12.33
2023-05-21T22:38:23.023Z,12.53
2023-05-21T22:40:55.245Z,12.40
2023-05-21T22:43:27.467Z,12.53
2023-05-21T22:45:59.654Z,12.57
2023-05-21T22:48:31.714Z,12.70
2023-05-21T22:51:04.729Z,13.10
2023-05-21T22:53:36.732Z,12.87
2023-05-21T22:56:08.895Z,13.30
2023-05-21T22:58:41.191Z,13.00
2023-05-21T23:01:13.278Z,13.33
2023-05-21T23:03:45.266Z,13.80
2023-05-21T23:06:17.301Z,13.53
2023-05-21T23:08:49.241Z,13.47
2023-05-21T23:11:21.358Z,14.40
2023-05-21T23:13:53.419Z,14.00
2023-05-21T23:16:25.554Z,16.23
2023-05-21T23:18:57.960Z,13.20
2023-05-21T23:21:30.098Z,13.13
2023-05-21T23:24:02.092Z,13.83
2023-05-21T23:26:34.888Z,13.97
2023-05-21T23:29:06.848Z,15.60
2023-05-21T23:31:39.084Z,14.23
2023-05-21T23:34:11.050Z,14.37
2023-05-21T23:36:43.156Z,13.27
2023-05-21T23:39:15.093Z,15.00
2023-05-21T23:41:47.325Z,14.87
2023-05-21T23:44:20.341Z,14.37
2023-05-21T23:46:52.374Z,14.83
2023-05-21T23:49:24.326Z,14.27
2023-05-21T23:51:56.679Z,15.73
2023-05-21T23:54:28.630Z,15.57
2023-05-21T23:57:00.934Z,13.83
2023-05-21T23:59:32.977Z,15.30
